AirNav   Pilot Hours Calculator
 
 1443 users online  

34ID Freeman Creek Airport
Cavendish, Idaho, USA

GOING TO CAVENDISH?


FAA INFORMATION EFFECTIVE 22 APRIL 2021

Location

FAA Identifier: 34ID
Lat/Long: 46-34-13.2000N 116-20-37.0000W
46-34.220000N 116-20.616667W
46.5703333,-116.3436111
(estimated)
Elevation: 3100 ft. / 945 m
From city: 4 miles E of CAVENDISH, ID
Time zone: UTC -7 (UTC -8 during Standard Time)
Zip code: 83541

Airport Operations

Airport use: Private use. Permission required prior to landing
Activation date: 03/2008
Control tower: no
ARTCC: SEATTLE CENTER
FSS: BOISE FLIGHT SERVICE STATION
Attendance: UNATNDD
Wind indicator: yes
Segmented circle: no

Nearby radio navigation aids

VOR radial/distance  VOR name  Freq  Var
MQGr042/24.5NEZ PERCE VOR/DME108.2020E
PUWr080/36.8PULLMAN VOR/DME109.0020E

Airport Services

Runway Information

Runway 7/25

Dimensions: 2300 x 35 ft. / 701 x 11 m
Surface: gravel, in good condition
RUNWAY 7  RUNWAY 25
Traffic pattern: rightleft
Obstructions: 1040 ft. tower, 12144 ft. from runwaynone

Airport Ownership and Management from official FAA records

Ownership: Privately-owned
Owner: KEN & ROBIN KYLE
65 BARLEY DR
LENORE, ID 83541
Phone (208) 476-9048
ADDTL OWNERS: MARK & ANN REGAN, DAVE & SANDIE EICHNER, JACK CHRISTIANSEN.
Manager: KEN KYLE
65 BARLEY DR
LENORE, ID 83541
Phone (208) 476-9048

Airport Operational Statistics

Aircraft based on the field: 1
Single engine airplanes: 1
    
Aircraft operations: 116/year
83% local general aviation
17% transient general aviation

Additional Remarks

FOR CD CTC SEATTLE ARTCC AT 253-351-3694.

Instrument Procedures

There are no published instrument procedures at 34ID.

Some nearby airports with instrument procedures:

KLWS - Lewiston-Nez Perce County Airport (30 nm SW)
KPUW - Pullman/Moscow Regional Airport (33 nm W)
KGIC - Idaho County Airport (39 nm S)
KCOE - Coeur d'Alene Airport - Pappy Boyington Field (75 nm N)
KSFF - Felts Field Airport (78 nm NW)
 
Loc | Ops | Rwys | IFR | FBO | Links
Com | Nav | Svcs | Stats | Notes
Aerial photo
WARNING: Photo may not be current or correct
Aerial photo of 34ID (Freeman Creek Airport)
Photo by Jerry Kyle.
Photo taken 23-Jun-2007

Do you have a better or more recent aerial photo of Freeman Creek Airport that you would like to share? If so, please send us your photo.

 
Sectional chart

 
Airport distance calculator
Flying to Freeman Creek Airport? Find the distance to fly.

From to 34ID

Sunrise and sunset
Times for 14-May-2021
 Local
(UTC-7)
 Zulu
(UTC)
Morning civil twilight04:3811:38
Sunrise05:1312:13
Sunset20:1003:10
Evening civil twilight20:4603:46

Current date and time
Zulu (UTC)  14-May-2021 16:57:06
Local (UTC-7)  14-May-2021 09:57:06
 
METAR
KLWS 
30nm SW 
141556Z 00000KT 10SM CLR 18/05 A3005 RMK AO2 SLP171 T01780050
KPUW 
34nm W 
141553Z AUTO VRB03KT 10SM CLR 17/05 A3008 RMK AO2 SLP179 T01720050
KGIC 
39nm S 
141635Z AUTO 03003KT 10SM CLR 16/04 A3008 RMK AO1
KP69 
40nm SE 
141552Z AUTO 00000KT 16/06 A3008 RMK AO1 SLP176 T01610056
TAF
KLWS 
30nm SW 
141128Z 1412/1512 VRB02KT P6SM SCT200 FM141800 32005KT P6SM FEW200 FM150600 17004KT P6SM SKC
KPUW 
34nm W 
141128Z 1412/1512 09003KT P6SM SCT200 FM142000 31005KT P6SM SCT080 FM150300 VRB02KT P6SM SKC
NOTAMs
Click for the latest NOTAMs
NOTAMs are issued by the DoD/FAA and will open in a separate window not controlled by AirNav.

 

 
 

Would you like to see your business listed on this page?

 If your business provides an interesting product or service to pilots, flight crews, aircraft, or users of the Freeman Creek Airport, you should consider listing it here.  To start the listing process, click on the button below
 
Add a business
 

Other Pages about Freeman Creek Airport

Update a link
 
Copyright © AirNav, LLC. All rights reserved. Privacy Policy  Contact